Time;durP1;ratioP1;P1;durP2;ratioP2;P2;SDS_P1;SDS_P2;PMS_P1;PMS_P2;Temp;Humidity;BMP_temperature;BMP_pressure;BME280_temperature;BME280_humidity;BME280_pressure;Samples;Min_cycle;Max_cycle;Signal;HPM_P1;HPM_P2
2022/11/07 00:03:23;;;;;;;6.13;3.35;;;;;;;;;;8354330;28;20036;-61
2022/11/07 00:07:24;;;;;;;5.57;2.88;;;;;;;;;;8359525;28;20562;-62
2022/11/07 00:11:24;;;;;;;6.07;3.45;;;;;;;;;;8357472;28;20093;-61
2022/11/07 00:15:24;;;;;;;4.97;3.33;;;;;;;;;;8354405;28;20147;-61
2022/11/07 00:19:24;;;;;;;7.78;3.50;;;;;;;;;;8356170;28;20043;-62
2022/11/07 00:23:25;;;;;;;5.15;3.20;;;;;;;;;;8355555;28;20033;-62
2022/11/07 00:27:25;;;;;;;5.28;2.85;;;;;;;;;;8353700;28;20023;-61
2022/11/07 00:31:25;;;;;;;8.27;3.38;;;;;;;;;;8354000;28;20524;-63
2022/11/07 00:35:25;;;;;;;6.37;3.00;;;;;;;;;;8356965;28;20032;-62
2022/11/07 00:39:25;;;;;;;4.75;2.88;;;;;;;;;;8355117;28;20266;-62
2022/11/07 00:43:26;;;;;;;8.75;3.40;;;;;;;;;;8354841;28;20021;-62
2022/11/07 00:47:26;;;;;;;6.82;3.78;;;;;;;;;;8357090;28;20792;-61
2022/11/07 00:51:27;;;;;;;7.10;3.40;;;;;;;;;;8357183;28;20903;-61
2022/11/07 00:55:28;;;;;;;4.15;3.17;;;;;;;;;;8357417;28;20041;-61
2022/11/07 00:59:28;;;;;;;7.68;3.70;;;;;;;;;;8356461;28;20195;-63
2022/11/07 01:07:47;;;;;;;4.47;3.03;;;;;;;;;;8357006;28;20059;-62
2022/11/07 01:11:47;;;;;;;8.18;3.25;;;;;;;;;;8350503;28;20021;-62
2022/11/07 01:15:47;;;;;;;5.53;3.35;;;;;;;;;;8352783;28;20051;-62
2022/11/07 01:19:48;;;;;;;4.37;2.93;;;;;;;;;;8353945;28;20108;-63
2022/11/07 01:23:48;;;;;;;7.15;3.00;;;;;;;;;;8352161;28;20348;-62
2022/11/07 01:27:48;;;;;;;6.32;3.03;;;;;;;;;;8357521;28;20380;-62
2022/11/07 01:31:49;;;;;;;4.53;2.85;;;;;;;;;;8355401;28;20086;-62
2022/11/07 01:35:49;;;;;;;6.75;2.25;;;;;;;;;;8338345;28;20883;-63
2022/11/07 01:39:50;;;;;;;5.13;2.78;;;;;;;;;;8369324;28;20035;-62
2022/11/07 01:43:50;;;;;;;4.40;2.50;;;;;;;;;;8363269;28;20024;-62
2022/11/07 01:47:51;;;;;;;6.18;2.60;;;;;;;;;;8367562;28;20384;-63
2022/11/07 01:51:57;;;;;;;5.53;2.45;;;;;;;;;;8366948;28;20036;-61
2022/11/07 01:55:57;;;;;;;5.65;2.47;;;;;;;;;;8366074;28;22154;-61
2022/11/07 01:59:58;;;;;;;7.72;2.30;;;;;;;;;;8364944;28;20055;-61
2022/11/07 02:03:59;;;;;;;8.82;2.42;;;;;;;;;;8366448;28;20036;-62
2022/11/07 02:08:01;;;;;;;3.83;2.17;;;;;;;;;;8364838;28;20035;-61
2022/11/07 02:12:01;;;;;;;7.40;2.40;;;;;;;;;;8365104;28;20152;-62
2022/11/07 02:16:02;;;;;;;3.85;2.30;;;;;;;;;;8364491;28;20107;-61
2022/11/07 02:20:03;;;;;;;5.00;2.03;;;;;;;;;;8366188;28;20055;-63
2022/11/07 02:24:23;;;;;;;10.50;2.45;;;;;;;;;;8368054;28;20012;-63
2022/11/07 02:28:25;;;;;;;6.95;2.38;;;;;;;;;;8364166;28;20697;-63
2022/11/07 02:32:26;;;;;;;5.28;2.20;;;;;;;;;;8365501;28;20044;-62
2022/11/07 02:36:26;;;;;;;6.63;1.83;;;;;;;;;;8367767;28;20090;-63
2022/11/07 02:40:28;;;;;;;4.32;1.90;;;;;;;;;;8367605;28;21044;-62
2022/11/07 02:44:28;;;;;;;7.95;2.35;;;;;;;;;;8365741;28;20028;-62
2022/11/07 02:48:30;;;;;;;5.30;1.70;;;;;;;;;;8362552;28;20106;-63
2022/11/07 02:52:30;;;;;;;4.55;2.00;;;;;;;;;;8360811;28;20557;-63
2022/11/07 02:56:30;;;;;;;4.47;1.95;;;;;;;;;;8359458;28;20032;-62
2022/11/07 03:00:30;;;;;;;7.82;1.98;;;;;;;;;;8361229;28;20221;-62
2022/11/07 03:04:30;;;;;;;5.30;2.13;;;;;;;;;;8361388;28;20024;-63
2022/11/07 03:08:31;;;;;;;6.03;1.75;;;;;;;;;;8358645;28;20115;-62
2022/11/07 03:12:31;;;;;;;7.43;2.03;;;;;;;;;;8360497;28;20025;-63
2022/11/07 03:16:31;;;;;;;9.85;2.22;;;;;;;;;;8358454;28;20048;-61
2022/11/07 03:20:31;;;;;;;10.93;2.88;;;;;;;;;;8353732;28;20567;-62
2022/11/07 03:24:32;;;;;;;7.75;2.20;;;;;;;;;;8358688;28;20111;-62
2022/11/07 03:28:33;;;;;;;7.23;2.40;;;;;;;;;;8358712;28;20044;-62
2022/11/07 03:32:33;;;;;;;6.38;2.05;;;;;;;;;;8360841;28;20282;-62
2022/11/07 03:36:33;;;;;;;6.00;1.90;;;;;;;;;;8359614;28;20748;-63
2022/11/07 03:40:34;;;;;;;7.10;2.15;;;;;;;;;;8358690;28;20024;-62
2022/11/07 03:44:34;;;;;;;4.78;1.77;;;;;;;;;;8358260;28;20028;-62
2022/11/07 03:48:34;;;;;;;7.93;2.50;;;;;;;;;;8358754;28;20048;-63
2022/11/07 03:52:34;;;;;;;4.53;2.00;;;;;;;;;;8357119;28;20064;-62
2022/11/07 03:56:35;;;;;;;6.75;2.40;;;;;;;;;;8360063;28;20126;-62
2022/11/07 04:00:35;;;;;;;4.67;2.10;;;;;;;;;;8356459;28;20853;-62
2022/11/07 04:04:35;;;;;;;8.60;2.00;;;;;;;;;;8360392;28;20305;-63
2022/11/07 04:08:35;;;;;;;7.68;2.15;;;;;;;;;;8357972;28;20732;-62
2022/11/07 04:21:13;;;;;;;7.13;2.00;;;;;;;;;;8357921;28;20320;-62
2022/11/07 04:25:13;;;;;;;6.30;2.30;;;;;;;;;;8359285;28;20707;-62
2022/11/07 04:29:13;;;;;;;10.18;1.80;;;;;;;;;;8355803;28;20974;-62
2022/11/07 04:33:14;;;;;;;10.10;2.10;;;;;;;;;;8356557;28;20035;-62
2022/11/07 04:37:15;;;;;;;4.85;1.67;;;;;;;;;;8357643;28;20111;-62
2022/11/07 04:41:19;;;;;;;5.95;2.00;;;;;;;;;;8355401;28;20028;-62
2022/11/07 04:45:19;;;;;;;8.50;1.80;;;;;;;;;;8354189;28;20148;-61
2022/11/07 04:49:20;;;;;;;4.80;1.70;;;;;;;;;;8354927;28;20068;-62
2022/11/07 04:53:20;;;;;;;9.02;2.28;;;;;;;;;;8356562;28;20020;-62
2022/11/07 04:57:20;;;;;;;5.97;1.98;;;;;;;;;;8358742;28;20633;-62
2022/11/07 05:01:20;;;;;;;6.07;1.80;;;;;;;;;;8354566;28;20045;-62
2022/11/07 05:05:21;;;;;;;4.80;1.70;;;;;;;;;;8358800;28;20032;-64
2022/11/07 05:09:21;;;;;;;7.35;2.00;;;;;;;;;;8357905;28;20140;-63
2022/11/07 05:13:21;;;;;;;6.72;1.85;;;;;;;;;;8354830;28;20132;-61
2022/11/07 05:17:22;;;;;;;4.63;1.70;;;;;;;;;;8356216;28;20086;-61
2022/11/07 05:21:22;;;;;;;8.73;1.90;;;;;;;;;;8355724;28;20032;-63
2022/11/07 05:25:22;;;;;;;6.18;1.65;;;;;;;;;;8356532;28;20145;-65
2022/11/07 05:29:22;;;;;;;4.97;1.60;;;;;;;;;;8356777;28;20020;-61
2022/11/07 05:33:22;;;;;;;5.07;1.90;;;;;;;;;;8354864;28;20032;-61
2022/11/07 05:37:23;;;;;;;6.47;1.60;;;;;;;;;;8354236;28;20064;-61
2022/11/07 05:41:23;;;;;;;6.82;1.70;;;;;;;;;;8353119;28;20027;-61
2022/11/07 05:45:23;;;;;;;4.35;1.63;;;;;;;;;;8353479;28;20040;-62
2022/11/07 05:49:24;;;;;;;7.23;1.60;;;;;;;;;;8354995;28;20031;-63
2022/11/07 05:53:24;;;;;;;7.10;1.52;;;;;;;;;;8355579;28;20267;-62
2022/11/07 05:57:24;;;;;;;6.55;1.98;;;;;;;;;;8356116;28;20112;-62
2022/11/07 06:01:25;;;;;;;6.13;1.50;;;;;;;;;;8353762;28;20143;-62
2022/11/07 06:05:25;;;;;;;6.17;1.70;;;;;;;;;;8355272;28;20059;-61
2022/11/07 06:09:25;;;;;;;7.13;1.52;;;;;;;;;;8354834;28;20369;-61
2022/11/07 06:13:25;;;;;;;8.60;1.80;;;;;;;;;;8349144;28;20056;-61
2022/11/07 06:17:26;;;;;;;9.10;1.50;;;;;;;;;;8351393;28;20045;-61
2022/11/07 06:21:26;;;;;;;4.57;1.40;;;;;;;;;;8355315;28;20028;-62
2022/11/07 06:25:27;;;;;;;3.53;1.52;;;;;;;;;;8359136;28;20020;-61
2022/11/07 06:29:27;;;;;;;8.52;2.05;;;;;;;;;;8358577;28;20569;-61
2022/11/07 06:33:28;;;;;;;5.80;1.60;;;;;;;;;;8356710;28;20192;-62
2022/11/07 06:37:29;;;;;;;8.95;1.80;;;;;;;;;;8361244;28;20120;-62
2022/11/07 06:41:29;;;;;;;7.73;1.90;;;;;;;;;;8358968;28;20048;-61
2022/11/07 06:45:29;;;;;;;8.95;1.60;;;;;;;;;;8361036;28;20255;-62
2022/11/07 06:49:29;;;;;;;8.23;2.08;;;;;;;;;;8359451;28;20024;-63
2022/11/07 06:53:30;;;;;;;4.40;1.60;;;;;;;;;;8358318;28;20036;-63
2022/11/07 06:57:30;;;;;;;7.00;1.60;;;;;;;;;;8341684;28;20443;-62
2022/11/07 07:01:30;;;;;;;4.35;1.67;;;;;;;;;;8357872;28;20266;-62
2022/11/07 07:05:31;;;;;;;5.05;1.65;;;;;;;;;;8357071;28;20033;-62
2022/11/07 07:09:32;;;;;;;7.15;1.75;;;;;;;;;;8353258;28;20029;-62
2022/11/07 07:13:32;;;;;;;7.80;1.85;;;;;;;;;;8354840;28;20026;-62
2022/11/07 07:17:32;;;;;;;9.82;1.77;;;;;;;;;;8323733;28;20664;-62
2022/11/07 07:21:33;;;;;;;7.63;1.85;;;;;;;;;;8303596;28;20056;-62
2022/11/07 07:25:33;;;;;;;8.60;1.63;;;;;;;;;;8304802;28;20528;-62
2022/11/07 07:29:33;;;;;;;3.10;1.42;;;;;;;;;;8302921;28;20029;-63
2022/11/07 07:33:34;;;;;;;4.47;1.63;;;;;;;;;;8336636;28;20457;-62
2022/11/07 07:37:34;;;;;;;6.18;1.60;;;;;;;;;;8336624;28;20106;-63
2022/11/07 07:41:34;;;;;;;4.38;1.50;;;;;;;;;;8333928;28;21013;-63
2022/11/07 07:45:35;;;;;;;5.20;1.50;;;;;;;;;;8337663;28;20661;-62
2022/11/07 07:49:35;;;;;;;8.68;1.90;;;;;;;;;;8338587;28;20170;-62
2022/11/07 07:53:35;;;;;;;4.18;1.48;;;;;;;;;;8336830;28;20032;-63
2022/11/07 07:57:39;;;;;;;6.90;1.70;;;;;;;;;;8334246;28;20027;-63
2022/11/07 08:01:39;;;;;;;8.70;1.73;;;;;;;;;;8328422;28;20072;-63
2022/11/07 08:05:40;;;;;;;7.25;1.42;;;;;;;;;;8334797;28;20029;-63
2022/11/07 08:09:40;;;;;;;6.28;1.40;;;;;;;;;;8334027;28;20013;-63
2022/11/07 08:13:40;;;;;;;7.93;1.67;;;;;;;;;;8333595;28;20087;-62
2022/11/07 08:17:40;;;;;;;8.65;1.95;;;;;;;;;;8333376;28;20045;-62
2022/11/07 08:21:42;;;;;;;11.77;2.15;;;;;;;;;;8335364;28;20144;-63
2022/11/07 08:25:52;;;;;;;8.75;1.80;;;;;;;;;;8277858;28;20858;-63
2022/11/07 08:29:53;;;;;;;7.97;1.83;;;;;;;;;;8335846;28;20109;-63
2022/11/07 08:33:55;;;;;;;9.25;1.67;;;;;;;;;;8335156;28;20498;-63
2022/11/07 08:37:56;;;;;;;8.85;1.60;;;;;;;;;;8337039;28;20036;-63
2022/11/07 08:41:56;;;;;;;4.25;1.40;;;;;;;;;;8336522;28;20124;-64
2022/11/07 08:45:57;;;;;;;7.65;1.88;;;;;;;;;;8336599;28;20044;-64
2022/11/07 08:49:57;;;;;;;7.10;1.47;;;;;;;;;;8333385;28;20021;-63
2022/11/07 08:53:57;;;;;;;7.22;1.73;;;;;;;;;;8334955;28;20266;-62
2022/11/07 08:58:01;;;;;;;6.20;2.00;;;;;;;;;;8335690;28;20032;-63
2022/11/07 09:02:01;;;;;;;7.78;1.58;;;;;;;;;;8339354;28;20068;-63
2022/11/07 09:06:03;;;;;;;11.60;2.05;;;;;;;;;;8337889;28;20036;-64
2022/11/07 09:10:04;;;;;;;5.97;1.88;;;;;;;;;;8336371;28;20028;-63
2022/11/07 09:14:04;;;;;;;6.63;1.95;;;;;;;;;;8335602;28;20039;-62
2022/11/07 09:18:04;;;;;;;7.38;1.52;;;;;;;;;;8335393;28;20128;-64
2022/11/07 09:22:05;;;;;;;5.03;1.38;;;;;;;;;;8337045;28;20826;-63
2022/11/07 09:26:05;;;;;;;5.43;1.60;;;;;;;;;;8334451;28;20074;-63
2022/11/07 09:30:06;;;;;;;6.10;1.60;;;;;;;;;;8330130;28;20064;-64
2022/11/07 09:34:06;;;;;;;7.57;1.80;;;;;;;;;;8312083;28;20021;-63
2022/11/07 09:38:06;;;;;;;3.40;1.20;;;;;;;;;;8333583;28;20070;-62
2022/11/07 09:42:06;;;;;;;10.25;2.20;;;;;;;;;;8334971;28;20040;-62
2022/11/07 09:46:25;;;;;;;6.15;1.60;;;;;;;;;;8333690;28;20294;-63
2022/11/07 09:50:29;;;;;;;7.53;2.05;;;;;;;;;;8332964;28;20189;-63
2022/11/07 09:54:31;;;;;;;8.33;1.87;;;;;;;;;;8335968;28;20029;-62
2022/11/07 09:58:36;;;;;;;6.35;1.90;;;;;;;;;;8338859;28;20039;-63
2022/11/07 10:02:39;;;;;;;6.70;1.70;;;;;;;;;;8342969;28;20044;-63
2022/11/07 10:07:02;;;;;;;9.05;2.00;;;;;;;;;;8340275;28;20033;-63
2022/11/07 10:11:07;;;;;;;8.88;1.83;;;;;;;;;;8340436;28;20057;-62
2022/11/07 10:15:28;;;;;;;7.75;1.83;;;;;;;;;;8340499;28;20040;-62
2022/11/07 10:19:35;;;;;;;11.25;2.00;;;;;;;;;;8340302;28;20029;-62
2022/11/07 10:23:43;;;;;;;7.40;1.50;;;;;;;;;;8340567;28;20091;-63
2022/11/07 10:27:45;;;;;;;8.32;1.75;;;;;;;;;;8338842;28;20056;-63
2022/11/07 10:32:14;;;;;;;7.30;1.45;;;;;;;;;;8339377;28;20084;-62
2022/11/07 10:36:17;;;;;;;6.07;1.52;;;;;;;;;;8338069;28;20036;-62
2022/11/07 10:40:18;;;;;;;10.30;1.77;;;;;;;;;;8340181;28;20032;-62
2022/11/07 10:44:22;;;;;;;6.07;1.50;;;;;;;;;;8339042;28;20039;-62
2022/11/07 10:48:24;;;;;;;7.60;1.42;;;;;;;;;;8339597;28;20029;-62
2022/11/07 10:52:25;;;;;;;8.88;1.92;;;;;;;;;;8340116;28;20055;-62
2022/11/07 10:56:25;;;;;;;5.55;1.73;;;;;;;;;;8340234;28;20074;-62
2022/11/07 11:00:27;;;;;;;8.70;1.65;;;;;;;;;;8338161;28;20059;-62
2022/11/07 11:04:28;;;;;;;4.20;1.52;;;;;;;;;;8336555;28;20060;-62
2022/11/07 11:08:34;;;;;;;6.10;2.03;;;;;;;;;;8336081;28;20150;-62
2022/11/07 11:12:35;;;;;;;10.02;1.70;;;;;;;;;;8338287;28;20526;-62
2022/11/07 11:16:37;;;;;;;8.48;1.80;;;;;;;;;;8335801;28;20434;-62
2022/11/07 11:20:39;;;;;;;8.65;1.95;;;;;;;;;;8337105;28;20016;-62
2022/11/07 11:24:39;;;;;;;6.00;1.67;;;;;;;;;;8339229;28;21759;-63
2022/11/07 11:28:45;;;;;;;11.13;2.10;;;;;;;;;;8340121;28;20032;-62
2022/11/07 11:33:05;;;;;;;9.38;1.88;;;;;;;;;;8339215;28;20033;-62
2022/11/07 11:37:09;;;;;;;6.38;2.05;;;;;;;;;;8338075;28;20124;-62
2022/11/07 11:41:09;;;;;;;;;;;;;;;;;;8339547;28;20504;-62
2022/11/07 11:45:20;;;;;;;6.15;1.80;;;;;;;;;;8333221;28;19919;-62
2022/11/07 11:49:27;;;;;;;6.07;1.88;;;;;;;;;;8339859;28;20017;-64
2022/11/07 11:53:27;;;;;;;5.53;1.63;;;;;;;;;;8337536;28;20040;-63
2022/11/07 11:57:37;;;;;;;5.10;1.52;;;;;;;;;;8338986;28;20024;-62
2022/11/07 12:01:43;;;;;;;6.47;1.60;;;;;;;;;;8338018;28;20421;-62
2022/11/07 12:05:43;;;;;;;2.92;1.20;;;;;;;;;;8338573;28;20715;-62
2022/11/07 12:10:01;;;;;;;7.68;1.65;;;;;;;;;;8337034;28;20025;-62
2022/11/07 12:14:19;;;;;;;6.68;1.58;;;;;;;;;;8334527;28;20056;-62
2022/11/07 12:18:37;;;;;;;7.03;1.70;;;;;;;;;;8339612;28;20069;-62
2022/11/07 12:22:38;;;;;;;7.80;1.50;;;;;;;;;;8337622;28;20028;-62
2022/11/07 12:26:42;;;;;;;7.32;1.35;;;;;;;;;;8337637;28;20921;-63
2022/11/07 12:30:42;;;;;;;6.30;1.98;;;;;;;;;;8336442;28;20048;-64
2022/11/07 12:34:48;;;;;;;4.63;1.53;;;;;;;;;;8335495;28;20017;-62
2022/11/07 12:39:01;;;;;;;6.97;1.95;;;;;;;;;;8337262;28;20504;-63
2022/11/07 12:43:11;;;;;;;8.23;1.83;;;;;;;;;;8335752;28;20017;-63
2022/11/07 12:47:34;;;;;;;6.90;1.58;;;;;;;;;;8335695;28;20128;-63
2022/11/07 12:51:34;;;;;;;5.97;1.77;;;;;;;;;;8336014;28;20409;-63
2022/11/07 12:56:10;;;;;;;5.00;1.55;;;;;;;;;;8335527;28;20060;-63
2022/11/07 13:00:21;;;;;;;7.18;1.70;;;;;;;;;;8255314;28;20065;-63
2022/11/07 13:04:25;;;;;;;5.63;1.58;;;;;;;;;;8323447;28;20124;-62
2022/11/07 13:08:31;;;;;;;5.28;1.52;;;;;;;;;;8334113;28;20028;-63
2022/11/07 13:12:39;;;;;;;4.55;1.40;;;;;;;;;;8333719;28;20032;-63
2022/11/07 13:16:48;;;;;;;6.18;1.20;;;;;;;;;;8334187;28;20048;-63
2022/11/07 13:20:57;;;;;;;7.50;1.67;;;;;;;;;;8336033;28;20029;-64
2022/11/07 13:25:20;;;;;;;6.93;1.75;;;;;;;;;;8335170;28;20048;-63
2022/11/07 13:29:23;;;;;;;7.47;1.88;;;;;;;;;;8332984;28;20366;-63
2022/11/07 13:33:34;;;;;;;8.03;1.53;;;;;;;;;;8333738;28;20028;-63
2022/11/07 13:37:35;;;;;;;4.25;1.52;;;;;;;;;;8334558;28;20028;-63
2022/11/07 13:41:36;;;;;;;6.72;1.58;;;;;;;;;;8335940;28;20025;-63
2022/11/07 13:45:39;;;;;;;7.45;1.67;;;;;;;;;;8338136;28;20127;-64
2022/11/07 13:49:42;;;;;;;6.50;1.60;;;;;;;;;;8333876;28;20029;-63
2022/11/07 13:54:02;;;;;;;7.30;1.85;;;;;;;;;;8334341;28;20103;-65
2022/11/07 13:58:06;;;;;;;5.90;1.75;;;;;;;;;;8321946;28;20057;-64
2022/11/07 14:02:16;;;;;;;9.25;2.00;;;;;;;;;;8333840;28;20068;-63
2022/11/07 14:06:17;;;;;;;6.60;1.60;;;;;;;;;;8332116;28;20052;-63
2022/11/07 14:10:37;;;;;;;7.63;1.40;;;;;;;;;;8334410;28;20024;-63
2022/11/07 14:14:38;;;;;;;4.88;1.42;;;;;;;;;;8330918;28;20546;-63
2022/11/07 14:18:44;;;;;;;5.65;1.40;;;;;;;;;;8334257;28;20037;-63
2022/11/07 14:22:52;;;;;;;6.88;1.60;;;;;;;;;;8333463;28;20105;-64
2022/11/07 14:26:55;;;;;;;5.13;1.35;;;;;;;;;;8326112;28;20037;-69
2022/11/07 14:30:56;;;;;;;8.00;1.35;;;;;;;;;;8334022;28;20048;-64
2022/11/07 14:34:58;;;;;;;6.63;1.67;;;;;;;;;;8332160;28;20807;-63
2022/11/07 14:39:04;;;;;;;7.53;1.58;;;;;;;;;;8335857;28;20274;-64
2022/11/07 14:43:05;;;;;;;6.78;1.65;;;;;;;;;;8336354;28;20041;-63
2022/11/07 14:47:07;;;;;;;8.48;1.70;;;;;;;;;;8339347;28;20704;-64
2022/11/07 14:51:11;;;;;;;5.38;1.42;;;;;;;;;;8339825;28;20642;-63
2022/11/07 14:55:17;;;;;;;8.88;1.90;;;;;;;;;;8341394;28;20063;-63
2022/11/07 14:59:18;;;;;;;6.70;1.52;;;;;;;;;;8337602;28;20737;-63
2022/11/07 15:03:20;;;;;;;9.73;1.92;;;;;;;;;;8335322;28;20041;-63
2022/11/07 15:07:24;;;;;;;5.57;1.70;;;;;;;;;;8339186;28;20037;-63
2022/11/07 15:11:30;;;;;;;6.72;1.63;;;;;;;;;;8337348;28;20662;-64
2022/11/07 15:15:31;;;;;;;8.52;1.60;;;;;;;;;;8337000;28;20417;-64
2022/11/07 15:19:33;;;;;;;8.45;1.88;;;;;;;;;;8337016;28;20036;-64
2022/11/07 15:23:33;;;;;;;5.35;1.58;;;;;;;;;;8336537;28;20949;-64
2022/11/07 15:27:43;;;;;;;6.20;1.27;;;;;;;;;;8339630;28;20441;-63
2022/11/07 15:31:46;;;;;;;5.75;1.30;;;;;;;;;;8336763;28;20069;-63
2022/11/07 15:35:47;;;;;;;5.60;1.65;;;;;;;;;;8321090;28;20028;-63
2022/11/07 15:39:47;;;;;;;5.25;1.55;;;;;;;;;;8338920;28;20036;-63
2022/11/07 15:43:48;;;;;;;8.00;1.93;;;;;;;;;;8340387;28;20029;-63
2022/11/07 15:47:48;;;;;;;4.85;1.40;;;;;;;;;;8337426;28;21069;-63
2022/11/07 15:51:48;;;;;;;4.18;1.45;;;;;;;;;;8335754;28;20449;-63
2022/11/07 15:55:52;;;;;;;7.53;1.90;;;;;;;;;;8337734;28;20028;-63
2022/11/07 15:59:52;;;;;;;;;;;;;;;;;;8338775;28;20029;-63
2022/11/07 16:03:54;;;;;;;13.82;2.20;;;;;;;;;;8337906;28;19974;-64
2022/11/07 16:07:54;;;;;;;3.75;1.38;;;;;;;;;;8337775;28;20132;-64
2022/11/07 16:11:56;;;;;;;4.10;1.33;;;;;;;;;;8335863;28;20099;-65
2022/11/07 16:16:00;;;;;;;3.85;1.48;;;;;;;;;;8336451;28;20318;-63
2022/11/07 16:20:01;;;;;;;5.13;1.85;;;;;;;;;;8336037;28;20152;-63
2022/11/07 16:24:01;;;;;;;6.57;1.53;;;;;;;;;;8337788;28;20669;-63
2022/11/07 16:28:04;;;;;;;7.55;1.70;;;;;;;;;;8336839;28;20394;-64
2022/11/07 16:32:05;;;;;;;7.03;1.52;;;;;;;;;;8333565;28;20099;-64
2022/11/07 16:36:21;;;;;;;3.25;1.40;;;;;;;;;;8335475;28;20021;-63
2022/11/07 16:40:21;;;;;;;4.07;1.30;;;;;;;;;;8337874;28;20012;-63
2022/11/07 16:44:22;;;;;;;5.10;2.00;;;;;;;;;;8335675;28;20584;-63
2022/11/07 16:48:27;;;;;;;4.43;1.60;;;;;;;;;;8336774;28;20092;-63
2022/11/07 16:52:27;;;;;;;2.60;1.38;;;;;;;;;;8335573;28;20683;-63
2022/11/07 16:56:29;;;;;;;5.07;1.17;;;;;;;;;;8335144;28;20039;-63
2022/11/07 17:00:29;;;;;;;2.58;1.17;;;;;;;;;;8336069;28;20117;-63
2022/11/07 17:04:30;;;;;;;2.70;1.23;;;;;;;;;;8331796;28;20137;-63
2022/11/07 17:08:37;;;;;;;5.40;1.43;;;;;;;;;;8335125;28;20021;-63
2022/11/07 17:12:37;;;;;;;4.18;1.30;;;;;;;;;;8334551;28;20268;-63
2022/11/07 17:16:40;;;;;;;2.33;1.20;;;;;;;;;;8336926;28;20044;-63
2022/11/07 17:20:40;;;;;;;4.43;1.50;;;;;;;;;;8335099;28;20415;-63
2022/11/07 17:24:41;;;;;;;7.00;1.38;;;;;;;;;;8335667;28;20896;-63
2022/11/07 17:28:42;;;;;;;3.28;1.30;;;;;;;;;;8335205;28;20121;-65
2022/11/07 17:32:42;;;;;;;4.57;1.50;;;;;;;;;;8334418;28;20028;-64
2022/11/07 17:36:45;;;;;;;5.57;1.50;;;;;;;;;;8337042;28;20728;-64
2022/11/07 17:40:45;;;;;;;6.38;1.50;;;;;;;;;;8335676;28;20761;-64
2022/11/07 17:44:45;;;;;;;6.05;1.70;;;;;;;;;;8315054;28;20160;-65
2022/11/07 17:48:46;;;;;;;7.32;1.80;;;;;;;;;;8338868;28;20123;-64
2022/11/07 17:52:47;;;;;;;8.30;1.70;;;;;;;;;;8333463;28;20752;-64
2022/11/07 17:56:47;;;;;;;5.37;1.50;;;;;;;;;;8333892;28;20083;-64
2022/11/07 18:00:47;;;;;;;8.33;1.90;;;;;;;;;;8333959;28;20289;-64
2022/11/07 18:04:47;;;;;;;2.92;1.20;;;;;;;;;;8333274;28;20352;-64
2022/11/07 18:08:48;;;;;;;6.53;1.83;;;;;;;;;;8331288;28;20101;-64
2022/11/07 18:12:49;;;;;;;5.60;1.60;;;;;;;;;;8335128;28;20306;-64
2022/11/07 18:16:49;;;;;;;5.83;1.57;;;;;;;;;;8334980;28;20159;-64
2022/11/07 18:20:49;;;;;;;3.90;1.88;;;;;;;;;;8338609;28;20807;-64
2022/11/07 18:24:49;;;;;;;6.90;1.70;;;;;;;;;;8339163;28;20021;-63
2022/11/07 18:28:50;;;;;;;6.93;1.80;;;;;;;;;;8339552;28;20025;-64
2022/11/07 18:32:51;;;;;;;5.78;1.55;;;;;;;;;;8340381;28;20032;-63
2022/11/07 18:36:51;;;;;;;6.37;1.70;;;;;;;;;;8344220;28;20068;-65
2022/11/07 18:40:55;;;;;;;4.87;1.30;;;;;;;;;;8340202;28;20294;-64
2022/11/07 18:44:55;;;;;;;;;;;;;;;;;;8358937;28;20559;-64
2022/11/07 18:48:57;;;;;;;3.33;1.40;;;;;;;;;;8346400;28;19921;-63
2022/11/07 18:52:58;;;;;;;5.68;1.80;;;;;;;;;;8338384;28;20416;-64
2022/11/07 18:56:58;;;;;;;4.68;1.38;;;;;;;;;;8339162;28;20086;-64
2022/11/07 19:01:05;;;;;;;4.00;1.40;;;;;;;;;;8336905;28;20033;-64
2022/11/07 19:05:06;;;;;;;4.65;1.13;;;;;;;;;;8338234;28;20505;-63
2022/11/07 19:09:06;;;;;;;5.10;1.40;;;;;;;;;;8338576;28;20028;-64
2022/11/07 19:13:06;;;;;;;6.30;1.30;;;;;;;;;;8339136;28;20029;-64
2022/11/07 19:17:06;;;;;;;5.70;1.60;;;;;;;;;;8341006;28;20044;-64
2022/11/07 19:21:07;;;;;;;7.07;1.75;;;;;;;;;;8334176;28;20279;-63
2022/11/07 19:25:07;;;;;;;4.50;1.50;;;;;;;;;;8340599;28;20025;-64
2022/11/07 19:29:11;;;;;;;5.80;1.63;;;;;;;;;;8337482;28;20108;-63
2022/11/07 19:33:11;;;;;;;7.45;1.50;;;;;;;;;;8338490;28;20098;-64
2022/11/07 19:37:11;;;;;;;3.20;1.40;;;;;;;;;;8338739;28;20029;-64
2022/11/07 19:41:12;;;;;;;6.68;1.45;;;;;;;;;;8339321;28;20030;-63
2022/11/07 19:45:12;;;;;;;3.65;1.30;;;;;;;;;;8338075;28;20693;-64
2022/11/07 19:49:12;;;;;;;3.90;1.30;;;;;;;;;;8339359;28;20036;-63
2022/11/07 19:53:14;;;;;;;5.87;1.50;;;;;;;;;;8343802;28;20037;-65
2022/11/07 19:57:15;;;;;;;8.13;1.70;;;;;;;;;;8342010;28;20067;-64
2022/11/07 20:01:20;;;;;;;5.50;1.50;;;;;;;;;;8336740;28;20083;-64
2022/11/07 20:05:24;;;;;;;3.55;1.25;;;;;;;;;;8338548;28;20032;-63
2022/11/07 20:09:24;;;;;;;4.45;1.35;;;;;;;;;;8339108;28;20701;-63
2022/11/07 20:13:24;;;;;;;3.50;1.40;;;;;;;;;;8336354;28;20036;-64
2022/11/07 20:17:24;;;;;;;9.07;1.45;;;;;;;;;;8335894;28;20114;-65
2022/11/07 20:21:25;;;;;;;5.68;1.70;;;;;;;;;;8336058;28;20020;-64
2022/11/07 20:25:25;;;;;;;4.88;1.38;;;;;;;;;;8339398;28;20036;-63
2022/11/07 20:29:25;;;;;;;5.43;1.50;;;;;;;;;;8337415;28;20661;-63
2022/11/07 20:33:25;;;;;;;7.85;1.73;;;;;;;;;;8337946;28;20278;-64
2022/11/07 20:37:25;;;;;;;4.43;1.20;;;;;;;;;;8337036;28;20036;-64
2022/11/07 20:41:26;;;;;;;5.32;1.60;;;;;;;;;;8337509;28;20036;-64
2022/11/07 20:45:27;;;;;;;2.85;1.13;;;;;;;;;;8336937;28;20611;-64
2022/11/07 20:49:28;;;;;;;4.43;1.50;;;;;;;;;;8336795;28;20575;-64
2022/11/07 20:53:28;;;;;;;4.47;1.20;;;;;;;;;;8337290;28;20033;-64
2022/11/07 20:57:28;;;;;;;1.08;0.93;;;;;;;;;;8342035;28;20029;-63
2022/11/07 21:01:36;;;;;;;3.38;1.25;;;;;;;;;;8335391;28;20113;-64
2022/11/07 21:05:36;;;;;;;6.25;1.58;;;;;;;;;;8338984;28;20017;-63
2022/11/07 21:09:36;;;;;;;3.67;1.38;;;;;;;;;;8336506;28;20035;-63
2022/11/07 21:13:37;;;;;;;5.10;1.30;;;;;;;;;;8335976;28;20056;-64
2022/11/07 21:17:37;;;;;;;4.18;1.42;;;;;;;;;;8335370;28;20083;-64
2022/11/07 21:21:38;;;;;;;5.45;1.50;;;;;;;;;;8336115;28;20025;-64
2022/11/07 21:25:41;;;;;;;3.72;1.42;;;;;;;;;;8337707;28;20508;-63
2022/11/07 21:29:42;;;;;;;3.97;1.40;;;;;;;;;;8337539;28;20028;-64
2022/11/07 21:33:42;;;;;;;2.43;1.30;;;;;;;;;;8338686;28;20029;-63
2022/11/07 21:37:44;;;;;;;2.53;1.10;;;;;;;;;;8336562;28;20024;-63
2022/11/07 21:41:45;;;;;;;3.00;1.30;;;;;;;;;;8336958;28;20028;-64
2022/11/07 21:45:45;;;;;;;2.50;1.17;;;;;;;;;;8335934;28;20037;-65
2022/11/07 21:49:46;;;;;;;5.32;1.25;;;;;;;;;;8340438;28;20263;-65
2022/11/07 21:53:47;;;;;;;2.65;0.98;;;;;;;;;;8345188;28;20047;-64
2022/11/07 21:57:47;;;;;;;1.67;0.90;;;;;;;;;;8354423;28;20021;-65
2022/11/07 22:01:49;;;;;;;3.30;1.15;;;;;;;;;;8330197;28;20672;-64
2022/11/07 22:05:49;;;;;;;3.08;1.17;;;;;;;;;;8343240;28;20406;-63
2022/11/07 22:09:50;;;;;;;3.38;1.20;;;;;;;;;;8352212;28;20020;-64
2022/11/07 22:13:50;;;;;;;8.02;1.40;;;;;;;;;;8347255;28;20024;-63
2022/11/07 22:17:50;;;;;;;5.10;1.40;;;;;;;;;;8366069;28;20596;-65
2022/11/07 22:21:51;;;;;;;4.50;1.10;;;;;;;;;;8342801;28;20767;-64
2022/11/07 22:25:51;;;;;;;5.53;1.17;;;;;;;;;;8354932;28;20029;-65
2022/11/07 22:29:51;;;;;;;3.42;1.25;;;;;;;;;;8351093;28;20857;-65
2022/11/07 22:33:52;;;;;;;3.85;1.30;;;;;;;;;;8366572;28;20056;-64
2022/11/07 22:37:52;;;;;;;1.90;1.10;;;;;;;;;;8358997;28;20118;-64
2022/11/07 22:41:52;;;;;;;10.93;1.30;;;;;;;;;;8344921;28;20653;-64
2022/11/07 22:45:53;;;;;;;2.77;1.00;;;;;;;;;;8359317;28;20110;-64
2022/11/07 22:49:53;;;;;;;4.40;0.97;;;;;;;;;;8359425;28;20394;-64
2022/11/07 22:53:54;;;;;;;5.00;1.30;;;;;;;;;;8358141;28;20028;-64
2022/11/07 22:57:54;;;;;;;3.28;1.48;;;;;;;;;;8342356;28;20497;-64
2022/11/07 23:01:54;;;;;;;2.80;1.40;;;;;;;;;;8361870;28;20310;-64
2022/11/07 23:05:54;;;;;;;4.43;1.70;;;;;;;;;;8361698;28;20029;-65
2022/11/07 23:09:55;;;;;;;4.30;1.90;;;;;;;;;;8360455;28;20796;-64
2022/11/07 23:14:02;;;;;;;3.43;1.90;;;;;;;;;;8359100;28;20051;-64
2022/11/07 23:18:02;;;;;;;5.72;2.00;;;;;;;;;;8358336;28;20352;-64
2022/11/07 23:22:02;;;;;;;3.92;1.90;;;;;;;;;;8362033;28;20115;-64
2022/11/07 23:26:04;;;;;;;7.78;2.50;;;;;;;;;;8360343;28;20020;-64
2022/11/07 23:30:05;;;;;;;5.40;1.60;;;;;;;;;;8360644;28;20020;-65
2022/11/07 23:34:05;;;;;;;5.15;2.08;;;;;;;;;;8360653;28;20028;-64
2022/11/07 23:38:06;;;;;;;4.78;1.90;;;;;;;;;;8359399;28;20115;-65
2022/11/07 23:42:06;;;;;;;4.70;2.00;;;;;;;;;;8358703;28;20028;-64
